createdAt,value
2023-01-12T00:01:58.861Z,3.06
2023-01-12T00:04:27.195Z,3.07
2023-01-12T00:06:55.261Z,3.08
2023-01-12T00:09:23.437Z,3.11
2023-01-12T00:11:52.036Z,3.11
2023-01-12T00:14:20.110Z,3.09
2023-01-12T00:16:48.325Z,3.06
2023-01-12T00:19:20.491Z,2.99
2023-01-12T00:21:58.779Z,2.87
2023-01-12T00:24:29.825Z,2.79
2023-01-12T00:26:59.850Z,2.73
2023-01-12T00:29:28.990Z,2.68
2023-01-12T00:31:59.001Z,2.64
2023-01-12T00:34:29.645Z,2.59
2023-01-12T00:37:00.654Z,2.55
2023-01-12T00:39:29.677Z,2.51
2023-01-12T00:42:16.286Z,2.47
2023-01-12T00:45:02.995Z,2.44
2023-01-12T00:47:31.811Z,2.42
2023-01-12T00:50:01.384Z,2.40
2023-01-12T00:52:31.353Z,2.39
2023-01-12T00:55:00.265Z,2.37
2023-01-12T00:57:28.711Z,2.34
2023-01-12T00:59:59.875Z,2.30
2023-01-12T01:02:29.125Z,2.26
2023-01-12T01:04:57.412Z,2.23
2023-01-12T01:07:25.617Z,2.20
2023-01-12T01:09:53.750Z,2.16
2023-01-12T01:12:22.824Z,2.14
2023-01-12T01:14:53.604Z,2.11
2023-01-12T01:17:22.062Z,2.09
2023-01-12T01:19:50.516Z,2.07
2023-01-12T01:22:18.742Z,2.08
2023-01-12T01:24:48.021Z,2.08
2023-01-12T01:27:24.602Z,2.08
2023-01-12T01:29:52.775Z,2.07
2023-01-12T01:32:21.687Z,2.08
2023-01-12T01:34:49.888Z,2.14
2023-01-12T01:37:19.384Z,2.19
2023-01-12T01:39:48.238Z,2.25
2023-01-12T01:42:28.610Z,2.31
2023-01-12T01:44:59.859Z,2.39
2023-01-12T01:47:39.987Z,2.45
2023-01-12T01:50:35.209Z,2.51
2023-01-12T01:53:11.583Z,2.56
2023-01-12T01:56:05.919Z,2.62
2023-01-12T01:59:08.793Z,2.67
2023-01-12T02:01:39.410Z,2.64
2023-01-12T02:04:09.127Z,2.62
2023-01-12T02:06:38.797Z,2.59
2023-01-12T02:09:36.492Z,2.60
2023-01-12T02:12:45.633Z,2.62
2023-01-12T02:15:32.815Z,2.67
2023-01-12T02:18:43.577Z,2.72
2023-01-12T02:21:38.697Z,2.72
2023-01-12T02:24:32.088Z,2.77
2023-01-12T02:27:30.588Z,2.86
2023-01-12T02:30:22.540Z,2.90
2023-01-12T02:32:59.663Z,2.92
2023-01-12T02:35:54.557Z,2.98
2023-01-12T02:38:38.415Z,3.04
2023-01-12T02:42:00.596Z,3.11
2023-01-12T02:45:00.967Z,3.25
2023-01-12T02:47:53.901Z,3.36
2023-01-12T02:50:43.975Z,3.47
2023-01-12T02:53:39.417Z,3.54
2023-01-12T02:56:09.166Z,3.62
2023-01-12T02:58:53.553Z,3.61
2023-01-12T03:02:33.241Z,3.62
2023-01-12T03:05:23.231Z,3.65
2023-01-12T03:08:15.616Z,3.60
2023-01-12T03:10:54.425Z,3.51
2023-01-12T03:13:25.282Z,3.42
2023-01-12T03:15:56.904Z,3.31
2023-01-12T03:18:31.467Z,3.20
2023-01-12T03:21:12.002Z,3.11
2023-01-12T03:23:47.471Z,3.05
2023-01-12T03:26:19.428Z,3.01
2023-01-12T03:28:56.683Z,2.97
2023-01-12T03:31:26.104Z,2.94
2023-01-12T03:34:28.709Z,2.91
2023-01-12T03:36:59.491Z,2.88
2023-01-12T03:39:47.764Z,2.87
2023-01-12T03:42:49.286Z,2.86
2023-01-12T03:45:59.720Z,2.86
2023-01-12T03:48:49.944Z,2.87
2023-01-12T03:51:31.735Z,2.88
2023-01-12T03:54:02.359Z,2.88
2023-01-12T03:57:50.130Z,2.89
2023-01-12T04:00:24.398Z,2.90
2023-01-12T04:03:04.338Z,2.91
2023-01-12T04:05:33.087Z,2.93
2023-01-12T04:08:02.927Z,2.97
2023-01-12T04:10:32.637Z,2.99
2023-01-12T04:13:00.884Z,2.99
2023-01-12T04:15:29.105Z,2.98
2023-01-12T04:17:57.333Z,3.00
2023-01-12T04:20:44.126Z,3.04
2023-01-12T04:23:13.242Z,3.08
2023-01-12T04:25:42.597Z,3.10
2023-01-12T04:28:19.683Z,3.12
2023-01-12T04:30:50.478Z,3.15
2023-01-12T04:33:39.113Z,3.18
2023-01-12T04:36:35.290Z,3.21
2023-01-12T04:40:07.123Z,3.24
2023-01-12T04:43:01.722Z,3.28
2023-01-12T04:45:32.914Z,3.30
2023-01-12T04:48:07.292Z,3.33
2023-01-12T04:50:36.289Z,3.38
2023-01-12T04:53:07.309Z,3.42
2023-01-12T04:55:41.182Z,3.45
2023-01-12T04:58:10.102Z,3.48
2023-01-12T05:00:38.135Z,3.51
2023-01-12T05:03:06.377Z,3.54
2023-01-12T05:05:36.302Z,3.56
2023-01-12T05:08:23.924Z,3.60
2023-01-12T05:10:58.382Z,3.67
2023-01-12T05:13:29.436Z,3.71
2023-01-12T05:15:57.860Z,3.75
2023-01-12T05:18:27.005Z,3.78
2023-01-12T05:20:57.059Z,3.80
2023-01-12T05:23:26.254Z,3.85
2023-01-12T05:25:57.988Z,3.91
2023-01-12T05:28:26.433Z,3.96
2023-01-12T05:30:55.229Z,4.02
2023-01-12T05:33:23.365Z,4.07
2023-01-12T05:35:52.107Z,4.11
2023-01-12T05:38:20.194Z,4.12
2023-01-12T05:40:48.234Z,4.14
2023-01-12T05:43:36.318Z,4.15
2023-01-12T05:46:06.186Z,4.13
2023-01-12T05:48:34.407Z,4.11
2023-01-12T05:51:03.971Z,4.08
2023-01-12T05:53:32.042Z,4.06
2023-01-12T05:56:26.624Z,4.04
2023-01-12T05:58:58.874Z,4.04
2023-01-12T06:01:31.355Z,4.04
2023-01-12T06:04:01.446Z,4.03
2023-01-12T06:06:31.539Z,4.03
2023-01-12T06:09:01.485Z,4.03
2023-01-12T06:12:08.854Z,4.02
2023-01-12T06:14:38.208Z,4.00
2023-01-12T06:17:06.426Z,4.00
2023-01-12T06:19:34.718Z,3.98
2023-01-12T06:22:11.752Z,3.98
2023-01-12T06:24:49.831Z,3.96
2023-01-12T06:27:20.216Z,3.95
2023-01-12T06:29:51.926Z,3.94
2023-01-12T06:32:21.787Z,3.93
2023-01-12T06:34:53.700Z,3.92
2023-01-12T06:37:23.734Z,3.92
2023-01-12T06:39:52.128Z,3.92
2023-01-12T06:42:29.023Z,3.92
2023-01-12T06:44:58.706Z,3.91
2023-01-12T06:47:28.461Z,3.89
2023-01-12T06:49:56.655Z,3.87
2023-01-12T06:52:29.873Z,3.86
2023-01-12T06:54:59.404Z,3.85
2023-01-12T06:57:27.356Z,3.86
2023-01-12T06:59:56.449Z,3.87
2023-01-12T07:02:24.434Z,3.89
2023-01-12T07:04:52.415Z,3.91
2023-01-12T07:07:20.445Z,3.94
2023-01-12T07:09:48.517Z,3.95
2023-01-12T07:12:16.456Z,3.95
2023-01-12T07:14:44.524Z,3.95
2023-01-12T07:17:12.790Z,3.96
2023-01-12T07:19:41.642Z,3.95
2023-01-12T07:22:09.923Z,3.95
2023-01-12T07:24:37.942Z,3.95
2023-01-12T07:27:06.172Z,3.98
2023-01-12T07:29:34.113Z,4.00
2023-01-12T07:32:02.280Z,4.01
2023-01-12T07:34:30.295Z,4.02
2023-01-12T07:36:58.439Z,4.03
2023-01-12T07:39:26.472Z,4.04
2023-01-12T07:42:13.037Z,4.06
2023-01-12T07:44:42.044Z,4.12
2023-01-12T07:47:10.059Z,4.19
2023-01-12T07:49:38.032Z,4.28
2023-01-12T07:52:06.232Z,4.34
2023-01-12T07:54:37.640Z,4.39
2023-01-12T07:57:09.813Z,4.46
2023-01-12T07:59:37.898Z,4.54
2023-01-12T08:02:06.988Z,4.63
2023-01-12T08:04:35.084Z,4.67
2023-01-12T08:07:03.271Z,4.73
2023-01-12T08:09:31.229Z,4.79
2023-01-12T08:11:59.247Z,4.81
2023-01-12T08:14:45.701Z,4.83
2023-01-12T08:17:18.767Z,4.87
2023-01-12T08:20:30.086Z,4.91
2023-01-12T08:23:03.508Z,4.99
2023-01-12T08:25:38.748Z,5.07
2023-01-12T08:28:08.849Z,5.14
2023-01-12T08:30:37.561Z,5.21
2023-01-12T08:33:08.133Z,5.23
2023-01-12T08:35:36.155Z,5.22
2023-01-12T08:38:04.224Z,5.15
2023-01-12T08:40:50.907Z,5.02
2023-01-12T08:43:40.247Z,4.92
2023-01-12T08:46:09.724Z,4.86
2023-01-12T08:48:39.010Z,4.84
2023-01-12T08:51:09.350Z,4.80
2023-01-12T08:53:37.472Z,4.74
2023-01-12T08:56:06.473Z,4.66
2023-01-12T08:58:35.623Z,4.59
2023-01-12T09:01:12.770Z,4.55
2023-01-12T09:03:41.167Z,4.47
2023-01-12T09:06:15.493Z,4.44
2023-01-12T09:08:44.238Z,4.44
2023-01-12T09:11:14.047Z,4.45
2023-01-12T09:13:42.178Z,4.47
2023-01-12T09:16:13.904Z,4.49
2023-01-12T09:18:43.037Z,4.53
2023-01-12T09:21:22.344Z,4.52
2023-01-12T09:23:50.542Z,4.47
2023-01-12T09:26:21.202Z,4.45
2023-01-12T09:28:49.594Z,4.47
2023-01-12T09:31:22.220Z,4.50
2023-01-12T09:33:50.713Z,4.53
2023-01-12T09:36:23.900Z,4.55
2023-01-12T09:38:52.953Z,4.50
2023-01-12T09:41:54.749Z,4.48
2023-01-12T09:44:44.704Z,4.52
2023-01-12T09:47:26.099Z,4.51
2023-01-12T09:50:10.050Z,4.47
2023-01-12T09:52:47.899Z,4.45
2023-01-12T09:55:25.160Z,4.48
2023-01-12T09:58:27.779Z,4.54
2023-01-12T10:00:58.020Z,4.61
2023-01-12T10:03:38.864Z,4.67
2023-01-12T10:06:14.150Z,4.72
2023-01-12T10:08:44.314Z,4.76
2023-01-12T10:11:27.575Z,4.78
2023-01-12T10:14:04.695Z,4.82
2023-01-12T10:16:47.978Z,4.85
2023-01-12T10:19:30.869Z,4.84
2023-01-12T10:22:04.175Z,4.73
2023-01-12T10:24:32.285Z,4.64
2023-01-12T10:27:03.231Z,4.54
2023-01-12T10:29:32.959Z,4.47
2023-01-12T10:32:01.091Z,4.47
2023-01-12T10:34:49.340Z,4.46
2023-01-12T10:37:18.184Z,4.44
2023-01-12T10:39:46.288Z,4.42
2023-01-12T10:42:43.744Z,4.42
2023-01-12T10:45:13.247Z,4.39
2023-01-12T10:47:45.426Z,4.37
2023-01-12T10:50:24.435Z,4.36
2023-01-12T10:53:11.581Z,4.38
2023-01-12T10:55:40.494Z,4.38
2023-01-12T10:58:26.118Z,4.38
2023-01-12T11:00:54.354Z,4.37
2023-01-12T11:03:37.230Z,4.33
2023-01-12T11:06:28.227Z,4.33
2023-01-12T11:08:58.410Z,4.34
2023-01-12T11:11:33.442Z,4.35
2023-01-12T11:14:03.897Z,4.37
2023-01-12T11:16:35.189Z,4.38
2023-01-12T11:19:18.598Z,4.36
2023-01-12T11:21:56.998Z,4.37
2023-01-12T11:24:44.426Z,4.37
2023-01-12T11:27:21.442Z,4.32
2023-01-12T11:29:49.466Z,4.31
2023-01-12T11:32:29.204Z,4.32
2023-01-12T11:35:06.567Z,4.35
2023-01-12T11:37:43.990Z,4.36
2023-01-12T11:40:23.807Z,4.35
2023-01-12T11:43:13.841Z,4.35
2023-01-12T11:45:58.256Z,4.39
2023-01-12T11:48:36.139Z,4.45
2023-01-12T11:51:04.753Z,4.48
2023-01-12T11:53:33.394Z,4.51
2023-01-12T11:56:24.897Z,4.57
2023-01-12T11:59:24.089Z,4.66
2023-01-12T12:02:11.324Z,4.71
2023-01-12T12:05:03.095Z,4.77
2023-01-12T12:07:40.618Z,4.79
2023-01-12T12:10:47.623Z,4.81
2023-01-12T12:13:27.639Z,4.83
2023-01-12T12:16:01.710Z,4.86
2023-01-12T12:18:53.566Z,4.89
2023-01-12T12:21:31.409Z,4.94
2023-01-12T12:24:09.953Z,5.00
2023-01-12T12:26:56.709Z,5.01
2023-01-12T12:29:37.459Z,4.99
2023-01-12T12:32:36.936Z,5.00
2023-01-12T12:35:23.564Z,5.02
2023-01-12T12:38:24.236Z,5.04
2023-01-12T12:41:22.416Z,5.04
2023-01-12T12:44:28.766Z,5.02
2023-01-12T12:47:26.089Z,5.03
2023-01-12T12:49:56.886Z,5.05
2023-01-12T12:52:31.662Z,5.04
2023-01-12T12:55:00.261Z,5.05
2023-01-12T12:57:28.950Z,4.99
2023-01-12T13:00:00.023Z,4.97
2023-01-12T13:02:40.428Z,4.97
2023-01-12T13:05:10.652Z,4.96
2023-01-12T13:07:44.014Z,4.96
2023-01-12T13:10:30.788Z,4.97
2023-01-12T13:13:02.877Z,4.97
2023-01-12T13:15:37.162Z,4.95
2023-01-12T13:18:06.681Z,4.93
2023-01-12T13:20:51.368Z,4.93
2023-01-12T13:23:52.218Z,4.92
2023-01-12T13:26:47.171Z,4.92
2023-01-12T13:29:44.401Z,4.91
2023-01-12T13:32:36.268Z,4.91
2023-01-12T13:35:22.410Z,4.91
2023-01-12T13:38:24.178Z,4.90
2023-01-12T13:40:56.156Z,4.88
2023-01-12T13:43:33.385Z,4.87
2023-01-12T13:46:07.514Z,4.86
2023-01-12T13:48:36.394Z,4.88
2023-01-12T13:51:25.923Z,4.88
2023-01-12T13:54:15.489Z,4.89
2023-01-12T13:56:52.657Z,4.90
2023-01-12T13:59:20.802Z,4.93
2023-01-12T14:01:50.836Z,4.96
2023-01-12T14:04:32.909Z,4.98
2023-01-12T14:12:14.562Z,5.03
2023-01-12T14:43:04.864Z,4.90
2023-01-12T16:45:13.704Z,4.70
2023-01-12T19:46:52.845Z,4.65
2023-01-12T21:03:46.137Z,4.73
2023-01-12T21:18:03.114Z,5.04
2023-01-12T21:20:31.347Z,5.05
2023-01-12T21:23:00.489Z,5.02
2023-01-12T21:25:29.209Z,5.01
2023-01-12T21:27:57.401Z,5.03
2023-01-12T21:30:25.575Z,5.09
2023-01-12T21:32:55.071Z,5.12
2023-01-12T21:35:24.074Z,5.13
2023-01-12T21:37:52.340Z,5.15
2023-01-12T21:40:20.945Z,5.13
2023-01-12T21:43:07.404Z,5.08
2023-01-12T21:45:36.938Z,5.06
2023-01-12T21:48:05.157Z,5.03
2023-01-12T21:50:34.083Z,5.01
2023-01-12T21:53:05.126Z,5.03
2023-01-12T21:55:34.062Z,5.02
2023-01-12T21:58:02.135Z,4.97
2023-01-12T22:00:30.810Z,4.90
2023-01-12T22:02:59.173Z,4.82
2023-01-12T22:05:27.198Z,4.73
2023-01-12T22:12:54.171Z,4.60
